Time;durP1;ratioP1;P1;durP2;ratioP2;P2;SDS_P1;SDS_P2;PMS_P1;PMS_P2;Temp;Humidity;BMP_temperature;BMP_pressure;BME280_temperature;BME280_humidity;BME280_pressure;Samples;Min_cycle;Max_cycle;Signal;HPM_P1;HPM_P2
2021/10/28 00:12:14;;;;;;;5.05;3.58;;;;;;;11.63;94.82;99963.21;1698241;83;21065;-67
2021/10/28 00:14:44;;;;;;;3.25;2.90;;;;;;;11.64;94.78;99967.52;1698374;81;21254;-67
2021/10/28 00:17:11;;;;;;;3.72;2.90;;;;;;;11.63;94.71;99973.67;1697267;83;21103;-67
2021/10/28 00:19:41;;;;;;;4.85;3.37;;;;;;;11.63;94.74;99972.37;1683737;83;21124;-67
2021/10/28 00:22:10;;;;;;;4.45;3.00;;;;;;;11.61;94.71;99972.89;1697597;83;21595;-67
2021/10/28 00:24:37;;;;;;;4.87;3.05;;;;;;;11.60;94.69;99975.13;1697560;83;21096;-67
2021/10/28 00:27:05;;;;;;;4.95;3.20;;;;;;;11.61;94.74;99976.81;1696928;83;21108;-67
2021/10/28 00:29:33;;;;;;;3.80;2.80;;;;;;;11.63;94.68;99977.59;1698087;83;21073;-67
2021/10/28 00:32:00;;;;;;;8.18;3.05;;;;;;;11.63;94.64;99977.59;1698524;83;21073;-67
2021/10/28 00:34:27;;;;;;;4.67;3.12;;;;;;;11.63;94.59;99982.36;1698257;83;21540;-67
2021/10/28 00:36:55;;;;;;;8.97;3.10;;;;;;;11.63;94.54;99974.98;1698788;83;21485;-67
2021/10/28 00:39:22;;;;;;;3.77;2.92;;;;;;;11.61;94.50;99991.20;1682376;83;21576;-66
2021/10/28 00:41:51;;;;;;;5.55;3.12;;;;;;;11.61;94.47;99997.73;1698576;83;21049;-67
2021/10/28 00:44:21;;;;;;;5.10;3.02;;;;;;;11.62;94.55;99999.42;1692925;83;21527;-66
2021/10/28 00:46:48;;;;;;;5.10;3.05;;;;;;;11.61;94.46;99997.73;1698705;83;21265;-66
2021/10/28 00:49:15;;;;;;;4.30;3.10;;;;;;;11.63;94.48;100002.44;1701720;83;21731;-66
2021/10/28 00:51:43;;;;;;;5.60;2.87;;;;;;;11.63;94.44;100001.14;1699342;83;27317;-66
2021/10/28 00:54:22;;;;;;;6.78;3.27;;;;;;;11.63;94.44;100001.98;1697880;83;21530;-67
2021/10/28 00:56:50;;;;;;;3.35;2.67;;;;;;;11.63;94.37;100007.20;1696470;83;21250;-67
2021/10/28 00:59:17;;;;;;;6.17;2.92;;;;;;;11.64;94.33;100002.82;1698587;83;21074;-67
2021/10/28 01:01:44;;;;;;;4.37;2.60;;;;;;;11.64;94.34;100015.89;1704313;81;21058;-67
2021/10/28 01:04:11;;;;;;;5.40;3.05;;;;;;;11.66;94.41;99993.14;1717843;82;20998;-67
2021/10/28 01:06:41;;;;;;;4.83;3.27;;;;;;;11.68;94.36;100000.47;1694770;83;21020;-67
2021/10/28 01:09:08;;;;;;;5.22;2.95;;;;;;;11.67;94.26;99999.22;1691128;83;21018;-67
2021/10/28 01:11:35;;;;;;;6.33;3.33;;;;;;;11.67;94.23;100000.05;1687522;84;21181;-67
2021/10/28 01:14:02;;;;;;;;;;;;;;;11.66;94.21;100004.91;1694568;83;21093;-68
2021/10/28 01:16:30;;;;;;;5.55;3.35;;;;;;;11.65;94.12;100007.16;1679439;83;20185;-67
2021/10/28 01:18:57;;;;;;;5.65;2.70;;;;;;;11.64;94.18;100014.59;1724486;81;20975;-67
2021/10/28 01:21:24;;;;;;;5.95;3.08;;;;;;;11.64;94.16;100018.52;1720958;82;21083;-67
2021/10/28 01:23:51;;;;;;;5.20;2.92;;;;;;;11.63;94.17;100014.22;1665160;84;21142;-67
2021/10/28 01:26:18;;;;;;;3.62;2.55;;;;;;;11.64;94.07;100013.28;1721850;81;21547;-67
2021/10/28 01:28:58;;;;;;;3.17;2.87;;;;;;;11.63;94.07;100001.14;1721461;82;20992;-67
2021/10/28 01:31:30;;;;;;;4.20;3.02;;;;;;;11.64;94.03;100008.05;1719123;81;21008;-67
2021/10/28 01:33:58;;;;;;;4.53;3.15;;;;;;;11.63;93.98;100015.52;1726703;81;21955;-67
2021/10/28 01:36:26;;;;;;;3.55;2.80;;;;;;;11.63;94.00;100016.83;1724313;81;21524;-67
2021/10/28 01:38:57;;;;;;;4.85;3.22;;;;;;;11.65;94.05;100021.53;1718180;81;21141;-67
2021/10/28 01:41:27;;;;;;;5.33;3.00;;;;;;;11.66;94.04;100028.45;1682665;84;21021;-67
2021/10/28 01:43:55;;;;;;;4.28;3.00;;;;;;;11.67;93.98;100019.67;1723253;81;21067;-67
2021/10/28 01:46:23;;;;;;;5.92;3.40;;;;;;;11.64;93.84;100019.36;1718334;81;22541;-67
2021/10/28 01:48:49;;;;;;;7.17;3.40;;;;;;;11.63;93.89;100018.98;1726850;81;21005;-67
2021/10/28 01:51:22;;;;;;;6.33;3.40;;;;;;;11.63;93.86;100016.83;1692172;82;20955;-67
2021/10/28 01:53:50;;;;;;;4.35;3.65;;;;;;;11.63;93.91;100017.67;1657463;83;21028;-67
2021/10/28 01:56:18;;;;;;;5.87;3.58;;;;;;;11.63;93.79;100020.28;1719862;82;21068;-67
2021/10/28 01:58:53;;;;;;;3.80;3.33;;;;;;;11.60;93.82;100025.66;1722826;82;21499;-67
2021/10/28 02:01:21;;;;;;;5.62;3.52;;;;;;;11.60;93.82;100019.59;1718242;82;21131;-67
2021/10/28 02:03:48;;;;;;;5.83;3.40;;;;;;;11.60;93.77;100031.36;1700835;81;21137;-67
2021/10/28 02:06:16;;;;;;;4.47;3.55;;;;;;;11.59;93.72;100030.95;1674263;84;26608;-67
2021/10/28 02:08:43;;;;;;;5.05;3.40;;;;;;;11.59;93.73;100033.56;1692444;83;21037;-67
2021/10/28 02:11:09;;;;;;;4.73;3.50;;;;;;;11.58;93.70;100030.11;1694749;84;22141;-67
2021/10/28 02:13:36;;;;;;;4.37;3.53;;;;;;;11.60;93.70;100037.90;1695157;83;21052;-67
2021/10/28 02:16:07;;;;;;;5.12;3.33;;;;;;;11.59;93.68;100028.34;1697526;82;20977;-67
2021/10/28 02:18:34;;;;;;;7.20;3.40;;;;;;;11.58;93.58;100029.27;1686749;82;21508;-67
2021/10/28 02:21:00;;;;;;;5.03;3.13;;;;;;;11.45;93.70;100005.91;1685001;83;21088;-68
2021/10/28 02:23:27;;;;;;;5.33;3.47;;;;;;;11.45;93.70;100005.91;1691338;84;21090;-68
2021/10/28 02:25:57;;;;;;;6.60;4.03;;;;;;;11.53;93.45;100028.62;1695139;83;20933;-67
2021/10/28 02:28:24;;;;;;;6.62;3.95;;;;;;;11.50;93.50;100019.16;1688494;84;20973;-67
2021/10/28 02:30:56;;;;;;;5.97;3.45;;;;;;;11.50;93.47;100022.23;1688139;84;20950;-67
2021/10/28 02:33:23;;;;;;;4.95;3.20;;;;;;;11.50;93.50;100026.16;1688607;83;21594;-66
2021/10/28 02:35:51;;;;;;;5.65;3.20;;;;;;;11.49;93.45;100024.47;1695490;82;21093;-66
2021/10/28 02:38:18;;;;;;;3.37;2.95;;;;;;;11.50;93.46;100023.54;1693078;83;21014;-66
2021/10/28 02:40:48;;;;;;;6.20;3.35;;;;;;;11.51;93.42;100026.53;1687879;83;21092;-66
2021/10/28 02:43:15;;;;;;;5.95;3.20;;;;;;;11.51;93.36;100027.84;1683616;83;21013;-66
2021/10/28 02:45:42;;;;;;;4.65;3.12;;;;;;;11.50;93.35;100029.61;1692211;84;21867;-66
2021/10/28 02:48:09;;;;;;;6.17;3.00;;;;;;;11.51;93.25;100025.22;1687682;83;22124;-66
2021/10/28 02:50:38;;;;;;;5.00;3.35;;;;;;;11.49;93.26;100029.70;1676399;83;20967;-66
2021/10/28 02:53:05;;;;;;;3.30;3.00;;;;;;;11.51;93.26;100033.07;1698846;82;21027;-66
2021/10/28 02:55:33;;;;;;;5.40;3.00;;;;;;;11.49;93.21;100029.70;1669735;84;21599;-66
2021/10/28 02:58:00;;;;;;;11.90;3.75;;;;;;;11.49;93.21;100033.63;1698861;83;26854;-65
2021/10/28 03:00:27;;;;;;;5.58;3.47;;;;;;;11.49;93.16;100034.94;1682200;84;21053;-65
2021/10/28 03:02:58;;;;;;;7.03;3.77;;;;;;;11.49;93.16;100025.78;1728487;81;21081;-66
2021/10/28 03:05:25;;;;;;;;;;;;;;;11.49;93.12;100027.09;1704577;82;20958;-66
2021/10/28 03:07:54;;;;;;;5.53;3.37;;;;;;;11.48;93.07;100029.30;1678805;84;20295;-66
2021/10/28 03:10:20;;;;;;;6.97;3.40;;;;;;;11.46;93.08;100032.46;1722910;81;21052;-66
2021/10/28 03:12:50;;;;;;;4.70;2.90;;;;;;;11.46;93.10;100032.46;1723577;81;21094;-66
2021/10/28 03:15:18;;;;;;;5.53;3.90;;;;;;;11.45;93.03;100032.05;1725804;81;21117;-66
2021/10/28 03:25:53;;;;;;;6.28;4.20;;;;;;;11.45;92.87;100043.81;1721333;81;22885;-66
2021/10/28 03:28:21;;;;;;;3.83;3.17;;;;;;;11.41;92.90;100046.58;1720551;81;21535;-66
2021/10/28 03:30:49;;;;;;;5.53;3.35;;;;;;;11.41;92.89;100051.80;1716667;81;21032;-66
2021/10/28 03:33:20;;;;;;;5.42;3.52;;;;;;;11.41;92.86;100045.73;1713519;82;20961;-66
2021/10/28 03:35:47;;;;;;;7.30;3.40;;;;;;;11.40;92.85;100049.28;1729483;81;20965;-66
2021/10/28 03:38:27;;;;;;;6.47;4.03;;;;;;;11.38;92.82;100046.72;1722963;81;21641;-66
2021/10/28 03:43:53;;;;;;;5.22;3.60;;;;;;;11.37;92.74;100049.39;1723282;81;21010;-67
2021/10/28 04:03:30;;;;;;;4.75;3.22;;;;;;;11.34;92.55;100042.56;1803881;78;21039;-65
2021/10/28 04:08:16;;;;;;;5.40;3.20;;;;;;;11.34;92.46;100053.02;1799394;78;21542;-65
2021/10/28 04:29:06;;;;;;;5.62;3.37;;;;;;;11.34;92.27;100059.55;1806177;78;21200;-67
2021/10/28 04:31:36;;;;;;;6.28;3.15;;;;;;;11.35;92.24;100063.85;1821528;77;22151;-66
2021/10/28 04:34:09;;;;;;;4.62;2.98;;;;;;;11.35;92.19;100066.47;1823246;77;21052;-66
2021/10/28 04:36:57;;;;;;;4.97;2.90;;;;;;;11.35;92.17;100063.85;1822944;77;20959;-66
2021/10/28 04:39:24;;;;;;;9.93;4.03;;;;;;;11.35;92.06;100065.16;1670283;84;21017;-66
2021/10/28 04:41:51;;;;;;;6.70;3.85;;;;;;;11.35;92.06;100062.55;1677537;84;21088;-66
2021/10/28 04:44:18;;;;;;;5.53;3.33;;;;;;;11.38;92.06;100074.63;1678730;83;21120;-67
2021/10/28 04:46:45;;;;;;;4.97;3.20;;;;;;;11.39;91.99;100078.94;1674623;84;20966;-67
2021/10/28 04:49:12;;;;;;;4.72;2.90;;;;;;;11.40;92.01;100086.72;1683320;83;20917;-66
2021/10/28 04:51:38;;;;;;;5.70;3.27;;;;;;;11.41;91.96;100081.88;1645390;85;21551;-66
2021/10/28 04:54:05;;;;;;;6.92;3.72;;;;;;;11.41;91.93;100088.41;1682945;83;20959;-67
2021/10/28 04:56:32;;;;;;;6.10;3.50;;;;;;;11.42;91.86;100083.56;1677395;83;21644;-67
2021/10/28 04:58:59;;;;;;;8.18;3.27;;;;;;;11.43;91.80;100097.04;1681186;83;20974;-69
2021/10/28 05:01:26;;;;;;;4.75;3.17;;;;;;;11.43;91.75;100097.04;1676200;83;21569;-68
2021/10/28 05:03:53;;;;;;;6.00;3.27;;;;;;;11.45;91.78;100096.11;1675309;83;21647;-68
2021/10/28 05:06:20;;;;;;;5.70;3.60;;;;;;;11.45;91.72;100097.42;1680843;83;26326;-69
2021/10/28 05:08:46;;;;;;;3.80;2.90;;;;;;;11.43;91.66;100098.34;1671707;84;21516;-68
2021/10/28 05:11:19;;;;;;;5.58;3.75;;;;;;;11.46;91.58;100100.45;1675320;83;20974;-67
2021/10/28 05:13:47;;;;;;;9.03;4.33;;;;;;;11.43;91.45;100104.05;1653167;84;21065;-68
2021/10/28 05:16:14;;;;;;;20.97;5.25;;;;;;;11.41;91.53;100108.02;1678101;84;21049;-68
2021/10/28 05:18:41;;;;;;;13.28;4.90;;;;;;;11.41;91.48;100106.71;1684547;84;20997;-68
2021/10/28 05:21:15;;;;;;;7.10;4.62;;;;;;;11.41;91.41;100111.94;1686963;84;21071;-68
2021/10/28 05:23:41;;;;;;;10.80;5.58;;;;;;;11.41;91.38;100108.48;1680565;84;22443;-67
2021/10/28 05:26:09;;;;;;;8.58;4.08;;;;;;;11.40;91.38;100107.64;1682578;84;21105;-67
2021/10/28 05:28:43;;;;;;;18.82;9.15;;;;;;;11.40;91.28;100112.02;1678652;84;21053;-67
2021/10/28 05:31:17;;;;;;;11.12;5.80;;;;;;;11.40;91.32;100110.25;1674344;84;21105;-66
2021/10/28 05:33:44;;;;;;;15.80;6.33;;;;;;;11.41;91.30;100111.94;1646607;84;21589;-67
2021/10/28 05:36:11;;;;;;;9.40;4.85;;;;;;;11.41;91.30;100117.17;1684173;84;21503;-67
2021/10/28 05:38:43;;;;;;;10.38;4.60;;;;;;;11.41;91.15;100117.17;1689167;83;21070;-67
2021/10/28 05:41:13;;;;;;;9.68;7.15;;;;;;;11.39;91.16;100126.84;1689321;83;21103;-67
2021/10/28 05:43:43;;;;;;;10.48;6.97;;;;;;;11.40;91.19;100115.48;1685756;83;22336;-67
2021/10/28 05:46:29;;;;;;;10.45;4.72;;;;;;;11.41;91.19;100128.94;1751287;80;20984;-68
2021/10/28 05:48:56;;;;;;;10.78;5.65;;;;;;;11.39;91.14;100125.53;1743247;80;21152;-67
2021/10/28 05:51:34;;;;;;;10.43;5.45;;;;;;;11.41;91.16;100130.24;1741889;79;21155;-66
2021/10/28 05:54:02;;;;;;;8.40;5.15;;;;;;;11.42;91.12;100133.23;1751466;80;20897;-68
2021/10/28 05:56:33;;;;;;;8.63;5.20;;;;;;;11.42;91.10;100145.00;1748621;80;21070;-67
2021/10/28 05:59:00;;;;;;;9.25;5.20;;;;;;;11.42;91.12;100143.69;1747612;80;21653;-67
2021/10/28 06:01:27;;;;;;;5.20;4.67;;;;;;;11.42;91.03;100139.77;1742565;80;21031;-67
2021/10/28 06:03:54;;;;;;;8.00;4.73;;;;;;;11.42;90.98;100145.00;1746623;80;21023;-67
2021/10/28 06:06:21;;;;;;;7.83;5.00;;;;;;;11.42;90.99;100143.69;1742802;80;22107;-67
2021/10/28 06:08:48;;;;;;;;;;;;;;;11.42;90.98;100150.23;1755991;80;21336;-67
2021/10/28 06:11:15;;;;;;;5.90;4.75;;;;;;;11.43;90.87;100151.95;1747370;80;21116;-68
2021/10/28 06:13:46;;;;;;;7.00;4.78;;;;;;;11.40;90.86;100157.31;1753892;80;21078;-67
2021/10/28 06:16:13;;;;;;;7.15;5.00;;;;;;;11.41;90.87;100155.55;1713723;81;21563;-67
2021/10/28 06:18:46;;;;;;;6.33;4.78;;;;;;;11.40;90.89;100158.63;1732926;81;21009;-67
2021/10/28 06:21:10;;;;;;;8.23;5.40;;;;;;;11.42;90.83;100158.08;1735121;81;20997;-67
2021/10/28 06:23:39;;;;;;;8.65;5.40;;;;;;;11.42;90.80;100165.92;1732395;81;21107;-67
2021/10/28 06:26:06;;;;;;;9.48;4.87;;;;;;;11.43;90.78;100161.10;1745984;80;21007;-67
2021/10/28 06:28:33;;;;;;;7.47;5.05;;;;;;;11.44;90.72;100165.86;1749378;80;20987;-68
2021/10/28 06:31:00;;;;;;;8.28;4.95;;;;;;;11.43;90.67;100161.10;1749373;81;20957;-67
2021/10/28 06:33:30;;;;;;;8.90;5.30;;;;;;;11.43;90.64;100167.64;1717512;82;21379;-67
2021/10/28 06:35:57;;;;;;;7.15;5.22;;;;;;;11.45;90.67;100162.78;1750431;81;21157;-67
2021/10/28 06:38:24;;;;;;;12.63;6.28;;;;;;;11.45;90.59;100164.09;1743370;81;20955;-67
2021/10/28 06:40:51;;;;;;;6.90;5.40;;;;;;;11.46;90.61;100173.66;1750603;81;21434;-67
2021/10/28 06:43:18;;;;;;;8.48;5.62;;;;;;;11.48;90.54;100177.03;1750673;81;21029;-68
2021/10/28 06:45:45;;;;;;;10.50;5.70;;;;;;;11.50;90.62;100177.83;1695813;82;21058;-67
2021/10/28 06:48:13;;;;;;;9.35;5.05;;;;;;;11.57;90.73;100179.27;1727071;82;21628;-67
2021/10/28 06:50:43;;;;;;;9.53;5.72;;;;;;;11.59;90.51;100177.41;1726169;81;21567;-67
2021/10/28 06:53:10;;;;;;;6.60;5.28;;;;;;;11.59;90.45;100178.25;1722694;82;21219;-67
2021/10/28 07:02:32;;;;;;;7.35;5.92;;;;;;;11.67;90.45;100191.00;1815848;78;21076;-68
2021/10/28 07:04:58;;;;;;;;;;;;;;;11.66;90.28;100189.31;1823437;77;20969;-67
2021/10/28 07:07:30;;;;;;;9.18;5.83;;;;;;;11.67;90.29;100196.23;1819603;78;20075;-67
2021/10/28 07:12:40;;;;;;;7.08;5.72;;;;;;;11.65;90.11;100199.39;1813323;77;21070;-67
2021/10/28 07:15:02;;;;;;;7.42;5.90;;;;;;;11.63;90.08;100198.14;1818281;77;21591;-67
2021/10/28 07:24:59;;;;;;;6.30;5.30;;;;;;;11.67;90.08;100194.92;1820721;77;21009;-67
2021/10/28 07:35:25;;;;;;;8.78;7.05;;;;;;;11.83;90.08;100202.48;1822892;77;21017;-67
2021/10/28 08:05:41;;;;;;;7.87;6.35;;;;;;;12.22;89.50;100210.79;1748092;80;21055;-67
2021/10/28 08:13:34;;;;;;;7.15;6.33;;;;;;;12.19;89.52;100212.23;1758743;80;21613;-67
2021/10/28 08:23:47;;;;;;;9.08;7.22;;;;;;;12.12;89.43;100223.90;1803659;78;21078;-64
2021/10/28 08:28:54;;;;;;;11.55;7.62;;;;;;;12.16;89.50;100217.63;1817434;78;21028;-66
2021/10/28 08:31:21;;;;;;;10.50;7.50;;;;;;;12.21;89.45;100209.53;1825151;78;21000;-67
2021/10/28 08:33:49;;;;;;;8.93;7.47;;;;;;;12.26;89.38;100218.03;1811587;78;21059;-66
2021/10/28 08:36:41;;;;;;;11.97;7.42;;;;;;;12.27;89.32;100216.67;1806118;77;21430;-66
2021/10/28 08:39:54;;;;;;;7.58;6.15;;;;;;;12.34;89.23;100209.83;1808812;77;22527;-65
2021/10/28 08:42:23;;;;;;;9.83;6.73;;;;;;;12.31;89.23;100211.66;1814108;78;20971;-66
2021/10/28 08:44:54;;;;;;;10.00;6.50;;;;;;;12.38;89.19;100215.30;1810466;78;21650;-65
2021/10/28 08:47:23;;;;;;;10.88;7.50;;;;;;;12.43;89.33;100215.94;1814931;78;21039;-66
2021/10/28 08:50:05;;;;;;;10.38;6.58;;;;;;;12.53;89.49;100210.66;1820232;78;20981;-66
2021/10/28 08:52:45;;;;;;;12.85;6.83;;;;;;;12.62;89.38;100212.83;1827282;78;20973;-66
2021/10/28 08:58:07;;;;;;;7.80;6.62;;;;;;;12.69;89.09;100212.94;1809027;77;21216;-65
2021/10/28 09:24:23;;;;;;;9.80;7.08;;;;;;;13.02;88.44;100208.27;1824471;78;21010;-66
2021/10/28 09:29:57;;;;;;;8.18;7.05;;;;;;;13.10;88.14;100204.80;1824927;78;20932;-66
2021/10/28 09:46:42;;;;;;;10.80;8.88;;;;;;;13.45;87.79;100211.39;1822495;78;21635;-68
2021/10/28 09:52:14;;;;;;;13.75;8.15;;;;;;;13.68;87.57;100209.35;1817258;78;20975;-67
2021/10/28 09:54:51;;;;;;;9.83;8.83;;;;;;;13.76;87.35;100204.55;1785977;78;22538;-67
2021/10/28 09:58:00;;;;;;;11.35;8.13;;;;;;;13.77;87.11;100211.48;1814679;78;20895;-68
2021/10/28 10:00:24;;;;;;;13.40;8.75;;;;;;;13.84;87.17;100209.78;1851172;76;21008;-68
2021/10/28 10:02:55;;;;;;;11.50;9.45;;;;;;;13.94;86.95;100224.56;1845389;76;20977;-69
2021/10/28 10:06:01;;;;;;;12.03;8.70;;;;;;;14.03;86.80;100216.22;1840855;75;22672;-67
2021/10/28 10:08:25;;;;;;;9.98;8.98;;;;;;;14.07;87.02;100219.05;1824116;77;21463;-68
2021/10/28 10:10:53;;;;;;;;;;;;;;;14.18;86.61;100211.06;1838160;76;22400;-67
2021/10/28 10:13:25;;;;;;;12.15;8.45;;;;;;;14.20;86.42;100214.43;1821229;76;20077;-67
2021/10/28 10:16:04;;;;;;;11.25;10.15;;;;;;;14.27;86.33;100211.86;1827259;76;20890;-66
2021/10/28 10:18:36;;;;;;;10.50;8.85;;;;;;;14.29;86.18;100216.58;1832478;76;21020;-67
2021/10/28 10:21:14;;;;;;;13.80;9.78;;;;;;;14.38;86.44;100221.31;1825631;76;20977;-69
2021/10/28 10:24:04;;;;;;;11.28;9.43;;;;;;;14.46;86.24;100218.27;1824059;76;22130;-67
2021/10/28 10:26:59;;;;;;;14.10;9.60;;;;;;;14.54;86.13;100211.69;1681121;84;20971;-68
2021/10/28 11:28:31;;;;;;;13.25;8.13;;;;;;;14.96;83.02;100197.05;1712806;79;21143;-68
2021/10/28 12:54:16;;;;;;;10.60;6.25;;;;;;;14.03;80.12;100152.33;1750870;81;21100;-68
2021/10/28 13:02:32;;;;;;;7.87;6.40;;;;;;;13.93;79.64;100155.94;1746431;81;21048;-69
2021/10/28 13:50:40;;;;;;;5.37;3.95;;;;;;;13.43;79.34;100153.75;1728463;81;21055;-86
2021/10/28 13:53:30;;;;;;;10.55;4.30;;;;;;;13.38;79.02;100144.43;1727420;81;21109;-86
2021/10/28 13:58:25;;;;;;;12.55;4.58;;;;;;;13.29;79.12;100140.98;1724850;81;21586;-88
2021/10/28 15:30:12;;;;;;;13.28;6.25;;;;;;;10.07;80.03;100134.88;1815956;77;20934;-93
2021/10/28 15:35:39;;;;;;;6.20;5.30;;;;;;;9.83;80.17;100141.02;1814431;77;22152;-89
2021/10/28 16:23:25;;;;;;;157.18;88.07;;;;;;;8.50;81.59;100156.91;1776376;78;21065;-84
2021/10/28 16:25:52;;;;;;;65.03;37.67;;;;;;;8.45;81.73;100153.60;1833161;77;20924;-86
2021/10/28 16:28:19;;;;;;;74.07;43.25;;;;;;;8.40;81.74;100158.09;1818827;76;21041;-86
2021/10/28 16:30:47;;;;;;;80.03;45.92;;;;;;;8.35;81.92;100154.78;1832236;75;20945;-85
2021/10/28 16:33:15;;;;;;;121.17;63.60;;;;;;;8.32;81.92;100152.24;1836226;76;21472;-85
2021/10/28 16:35:44;;;;;;;67.75;35.85;;;;;;;8.28;82.00;100149.73;1832774;77;28330;-85
2021/10/28 16:38:11;;;;;;;60.43;34.27;;;;;;;8.23;82.06;100149.06;1836064;77;20998;-80
2021/10/28 16:40:40;;;;;;;50.55;29.10;;;;;;;8.20;82.16;100152.18;1835913;77;21605;-85
2021/10/28 16:43:09;;;;;;;77.70;44.77;;;;;;;8.16;82.31;100145.38;1827564;77;20927;-85
2021/10/28 16:45:37;;;;;;;76.55;46.90;;;;;;;8.12;82.25;100142.45;1833809;77;20932;-85
2021/10/28 16:48:07;;;;;;;57.38;38.40;;;;;;;8.06;82.27;100147.39;1841840;76;20930;-85
2021/10/28 16:50:35;;;;;;;59.20;41.28;;;;;;;8.01;82.23;100145.37;1835445;77;20883;-85
2021/10/28 16:53:03;;;;;;;47.08;32.73;;;;;;;7.95;82.32;100142.96;1839878;77;21025;-84
2021/10/28 16:55:32;;;;;;;51.48;34.78;;;;;;;7.92;82.52;100148.25;1838313;75;22193;-85
2021/10/28 16:58:00;;;;;;;91.78;58.00;;;;;;;7.88;82.62;100144.06;1837581;75;20898;-83
2021/10/28 17:00:27;;;;;;;150.38;88.85;;;;;;;7.84;82.64;100146.75;1833900;76;20930;-80
2021/10/28 17:02:54;;;;;;;156.25;94.87;;;;;;;7.81;82.70;100149.44;1838090;75;21113;-82
2021/10/28 17:05:21;;;;;;;99.00;69.17;;;;;;;7.77;82.83;100155.61;1838021;77;22372;-86
2021/10/28 17:07:48;;;;;;;241.88;150.05;;;;;;;7.75;82.92;100152.20;1836497;77;20994;-86
2021/10/28 17:10:14;;;;;;;242.77;166.22;;;;;;;7.72;82.98;100160.08;1836634;77;21028;-86
2021/10/28 17:12:41;;;;;;;128.47;98.33;;;;;;;7.70;83.10;100159.30;1836537;76;20973;-86
2021/10/28 17:15:09;;;;;;;100.47;74.65;;;;;;;7.66;83.14;100162.86;1834710;77;20981;-86
2021/10/28 17:17:36;;;;;;;104.12;80.20;;;;;;;7.63;83.13;100153.86;1786846;78;21106;-86
2021/10/28 17:20:06;;;;;;;112.08;89.58;;;;;;;7.59;83.20;100156.15;1830754;77;21084;-86
2021/10/28 17:22:37;;;;;;;62.98;50.00;;;;;;;7.56;83.27;100161.41;1819366;77;21014;-85
2021/10/28 17:25:08;;;;;;;48.63;37.67;;;;;;;7.54;83.31;100161.92;1818774;77;21005;-86
2021/10/28 17:27:34;;;;;;;52.93;36.40;;;;;;;7.51;83.37;100162.01;1830350;77;21578;-86
2021/10/28 17:30:04;;;;;;;31.30;25.75;;;;;;;7.50;83.59;100156.38;1824292;77;21100;-85
2021/10/28 17:32:30;;;;;;;46.70;31.75;;;;;;;7.48;83.63;100155.56;1810080;76;21550;-85
2021/10/28 17:34:58;;;;;;;38.98;25.75;;;;;;;7.47;83.79;100147.38;1828990;77;20922;-85
2021/10/28 17:37:25;;;;;;;44.30;30.70;;;;;;;7.49;83.96;100150.80;1828384;76;20959;-85
2021/10/28 17:39:51;;;;;;;32.93;24.20;;;;;;;7.49;83.93;100153.39;1830033;76;21047;-86
2021/10/28 17:42:19;;;;;;;36.17;23.23;;;;;;;7.48;83.95;100151.25;1826539;77;21057;-86
2021/10/28 17:44:54;;;;;;;42.03;30.68;;;;;;;7.46;83.95;100150.43;1830654;77;22414;-86
2021/10/28 17:47:21;;;;;;;43.35;28.30;;;;;;;7.44;84.03;100152.20;1827806;77;20982;-86
2021/10/28 17:49:48;;;;;;;37.65;27.13;;;;;;;7.41;84.01;100147.09;1838516;77;21512;-86
2021/10/28 17:52:15;;;;;;;35.23;25.35;;;;;;;7.38;84.09;100145.44;1816084;77;21000;-86
2021/10/28 17:54:45;;;;;;;33.85;25.48;;;;;;;7.35;84.16;100142.92;1803152;77;21746;-86
2021/10/28 17:57:14;;;;;;;44.30;33.85;;;;;;;7.34;84.33;100147.73;1833096;77;20986;-85
2021/10/28 17:59:42;;;;;;;38.10;30.37;;;;;;;7.36;84.49;100143.77;1800035;77;20977;-85
2021/10/28 18:02:10;;;;;;;41.05;29.48;;;;;;;7.34;84.44;100138.63;1825181;76;21444;-85
2021/10/28 18:04:37;;;;;;;36.23;27.17;;;;;;;7.34;84.48;100137.33;1828516;77;21026;-85
2021/10/28 18:07:04;;;;;;;41.15;31.07;;;;;;;7.32;84.56;100140.41;1830220;76;21198;-85
2021/10/28 18:09:33;;;;;;;38.00;28.90;;;;;;;7.32;84.58;100136.52;1836307;77;21529;-85
2021/10/28 18:12:00;;;;;;;37.08;26.65;;;;;;;7.32;84.70;100124.83;1793968;78;21314;-85
2021/10/28 18:14:28;;;;;;;39.35;29.87;;;;;;;7.31;84.68;100128.33;1787315;78;20991;-85
2021/10/28 18:16:56;;;;;;;34.33;25.77;;;;;;;7.27;84.71;100124.09;1768013;79;21071;-85
2021/10/28 18:19:24;;;;;;;45.00;30.35;;;;;;;7.28;84.86;100124.94;1811410;78;22082;-86
2021/10/28 18:21:55;;;;;;;;;;;;;;;7.27;84.88;100124.09;1818958;78;21521;-86
2021/10/28 18:24:25;;;;;;;35.43;27.05;;;;;;;7.27;85.11;100121.50;1815272;78;20166;-85
2021/10/28 18:26:53;;;;;;;46.42;32.25;;;;;;;7.27;85.05;100126.69;1772171;79;21610;-86
2021/10/28 18:29:19;;;;;;;;;;;;;;;7.28;85.27;100128.42;1800912;78;20930;-87
2021/10/28 18:31:46;;;;;;;39.47;29.50;;;;;;;7.29;85.40;100124.91;1797616;78;21124;-87
2021/10/28 18:34:15;;;;;;;45.73;32.83;;;;;;;7.28;85.30;100121.92;1797632;78;21086;-87
2021/10/28 18:36:44;;;;;;;39.50;31.00;;;;;;;7.27;85.29;100123.25;1794453;78;21581;-86
2021/10/28 18:39:14;;;;;;;33.55;25.72;;;;;;;7.24;85.29;100116.39;1812663;78;21056;-86
2021/10/28 18:41:43;;;;;;;41.25;28.50;;;;;;;7.23;85.32;100114.70;1825175;77;21079;-86
2021/10/28 18:44:11;;;;;;;44.00;30.88;;;;;;;7.23;85.46;100114.70;1766937;79;21289;-86
2021/10/28 18:46:37;;;;;;;40.08;29.18;;;;;;;7.24;85.58;100115.55;1764559;79;21067;-86
2021/10/28 18:49:04;;;;;;;38.42;28.60;;;;;;;7.26;85.72;100115.91;1778125;79;21064;-87
2021/10/28 18:51:35;;;;;;;30.65;24.05;;;;;;;7.25;85.61;100112.89;1804227;78;20989;-86
2021/10/28 18:54:03;;;;;;;39.63;29.42;;;;;;;7.26;85.73;100115.91;1815869;78;21019;-86
2021/10/28 18:56:31;;;;;;;46.68;31.45;;;;;;;7.26;85.75;100109.41;1815069;78;21074;-85
2021/10/28 18:58:57;;;;;;;;;;;;;;;7.28;85.85;100107.64;1818376;78;20934;-87
2021/10/28 19:01:28;;;;;;;41.23;29.67;;;;;;;7.30;85.95;100112.77;1818313;78;20456;-86
2021/10/28 19:03:55;;;;;;;41.42;31.20;;;;;;;7.29;86.06;100109.33;1813779;77;20995;-87
2021/10/28 19:06:21;;;;;;;41.80;29.75;;;;;;;7.34;86.10;100109.22;1809959;78;21596;-88
2021/10/28 19:08:49;;;;;;;38.30;25.77;;;;;;;7.35;86.14;100103.95;1806488;78;21094;-88
2021/10/28 19:11:15;;;;;;;43.78;29.52;;;;;;;7.36;86.11;100104.80;1815824;77;21263;-87
2021/10/28 19:13:45;;;;;;;39.95;31.05;;;;;;;7.38;86.23;100104.33;1816775;78;20947;-87
2021/10/28 19:16:14;;;;;;;44.70;31.35;;;;;;;7.40;86.26;100099.48;1834931;77;21585;-88
2021/10/28 19:18:44;;;;;;;42.38;30.15;;;;;;;7.43;86.40;100095.11;1813291;77;20984;-86
2021/10/28 19:21:12;;;;;;;44.05;31.00;;;;;;;7.46;86.36;100098.92;1835177;77;21061;-86
2021/10/28 19:23:40;;;;;;;38.30;29.32;;;;;;;7.49;86.49;100094.93;1827897;77;21493;-86
2021/10/28 19:26:08;;;;;;;35.85;25.20;;;;;;;7.54;86.67;100093.05;1824046;77;21604;-87
2021/10/28 19:28:35;;;;;;;41.68;29.27;;;;;;;7.66;86.96;100091.84;1832263;77;21553;-85
2021/10/28 19:31:08;;;;;;;36.38;26.77;;;;;;;7.74;86.94;100089.42;1832172;77;20979;-86
2021/10/28 19:33:57;;;;;;;44.45;30.05;;;;;;;7.81;86.93;100089.65;1830060;77;21120;-86
2021/10/28 19:36:03;;;;;;;38.38;28.85;;;;;;;7.88;87.00;100085.11;1818948;77;20970;-86
2021/10/28 19:46:39;;;;;;;46.60;29.65;;;;;;;8.01;86.79;100086.86;1834489;77;21802;-87
2021/10/28 19:49:07;;;;;;;33.75;25.10;;;;;;;8.01;86.82;100082.96;1833424;77;21551;-88
2021/10/28 19:51:34;;;;;;;32.33;24.87;;;;;;;8.00;86.79;100081.27;1830097;77;20996;-87
2021/10/28 19:54:02;;;;;;;32.40;25.08;;;;;;;7.97;86.67;100077.47;1820259;76;21485;-87
2021/10/28 19:56:29;;;;;;;42.03;29.27;;;;;;;7.94;86.80;100082.77;1826733;77;20981;-87
2021/10/28 19:59:01;;;;;;;42.75;30.05;;;;;;;7.96;87.01;100079.68;1829299;77;24320;-88
2021/10/28 20:01:31;;;;;;;30.05;23.98;;;;;;;7.96;86.91;100078.38;1818962;77;21554;-87
2021/10/28 20:04:14;;;;;;;28.07;22.95;;;;;;;7.93;86.85;100088.42;1821469;77;20966;-89
2021/10/28 20:20:05;;;;;;;36.50;29.10;;;;;;;7.87;87.19;100073.44;1837293;77;20958;-87
2021/10/28 20:22:38;;;;;;;39.10;27.35;;;;;;;7.88;87.26;100076.46;1838270;76;26759;-87
2021/10/28 20:25:09;;;;;;;31.65;24.37;;;;;;;7.87;87.29;100070.84;1836738;77;21077;-87